Ten. Cel. Aviador César Bombonato Airport

SBUL · 米纳斯吉拉斯州, 巴西

罗盘
风向 的 风向 350° Ten. Cel. Aviador César Bombonato Airport 4/22
风: 9 kt, 3 beaufort

7 kt

5 kt
改变
0 ft 1.000 2.000 3.000 4.000 5.000
CAVOK
METAR SBUL 281300Z 35009KT CAVOK 28/17 Q1019

METAR Ten. Cel. Aviador César Bombonato Airport - SBUL/UDI

Ten. Cel. Aviador César Bombonato Airport是,巴西中的中型机场。 该机场位于纬度-18,88358和经度-48,22594。 该机场有一条跑道: 4/22. 本场的ICAO机场代码为SBUL。 该机场的IATA代码为UDI。 机场在Brasilia FIR中。

该航空气象观测是针对Ten. Cel. Aviador César Bombonato Airport在2024年2月28日 10:00, 当地时间进行的。

机场观察

风向为350°,速度为9 kt。

天气为CAVOK。这意味着在5.000 ft或MSA(最低安全高度)以下(以较高者为准)以下没有云。这也意味着没有观测到积雨云或高耸的积云,可见度为10 km 或者更多或更高。此外,不会有雾,降雨或其他重要天气。

温度和风寒是28 °C。 热指数为28。 露点为17 °C,相对湿度为51%。 海平面上的气压为1019 hPa (QNH)。

白天

今天,太阳从06:10升起,在18:40降落。 这适用于Ten. Cel. Aviador César Bombonato Airport,世界夏令时可能有所不同。 当地时间与世界标准时间之间的时差为-3 小时。 当前,没有夏令时有效。

公司介绍

我们没有关于这个机场的公司信息。

体会

到Vliegles.nl去找飞行课程,跳伞和其他飞行体验。 浏览页面,了解Ten. Cel. Aviador César Bombonato Airport附近所有可用的活动。 你也可以使用搜索功能来寻找你所在地附近的特定飞行课程、跳伞或其他飞行体验。

跑道

Id 标题 侧风 逆风 侧风 %
4/22 024°-204° 5 kt 7 kt 56 %

逆风成分最大的方向会被突出显示,并用于横风计算。 这并不一定意味着这个方向在使用。

温度 & 天气

温度 28 °C
露点 17 °C
相对湿度 51%
热度指数 28 °C
Kp-index 1 (0-9)

白天

日出
06:10
中午
12:25
日落
18:40 (7:58)

小工具

你想在你的网站上有一个关于Ten. Cel. Aviador César Bombonato Airport的当前航空天气(METAR)的小部件吗?

显示HTML代码
?>